sensor_id;sensor_type;location;lat;lon;timestamp;P1;durP1;ratioP1;P2;durP2;ratioP2
45944;SDS011;31655;48.972;10.686;2024-03-17T00:01:36;23.33;;;12.32;;
45944;SDS011;31655;48.972;10.686;2024-03-17T00:04:02;20.85;;;10.93;;
45944;SDS011;31655;48.972;10.686;2024-03-17T00:06:28;18.48;;;11.05;;
45944;SDS011;31655;48.972;10.686;2024-03-17T00:08:54;19.65;;;11.07;;
45944;SDS011;31655;48.972;10.686;2024-03-17T00:11:20;16.67;;;10.25;;
45944;SDS011;31655;48.972;10.686;2024-03-17T00:13:46;17.83;;;8.95;;
45944;SDS011;31655;48.972;10.686;2024-03-17T00:16:12;20.10;;;9.18;;
45944;SDS011;31655;48.972;10.686;2024-03-17T00:18:38;17.13;;;9.95;;
45944;SDS011;31655;48.972;10.686;2024-03-17T00:21:04;15.32;;;9.40;;
45944;SDS011;31655;48.972;10.686;2024-03-17T00:23:30;18.92;;;9.77;;
45944;SDS011;31655;48.972;10.686;2024-03-17T00:25:55;19.63;;;10.07;;
45944;SDS011;31655;48.972;10.686;2024-03-17T00:28:21;30.85;;;17.90;;
45944;SDS011;31655;48.972;10.686;2024-03-17T00:30:47;15.93;;;9.63;;
45944;SDS011;31655;48.972;10.686;2024-03-17T00:33:12;16.02;;;9.15;;
45944;SDS011;31655;48.972;10.686;2024-03-17T00:35:39;14.52;;;8.52;;
45944;SDS011;31655;48.972;10.686;2024-03-17T00:38:04;21.25;;;11.00;;
45944;SDS011;31655;48.972;10.686;2024-03-17T00:40:35;16.70;;;9.63;;
45944;SDS011;31655;48.972;10.686;2024-03-17T00:43:05;17.52;;;10.35;;
45944;SDS011;31655;48.972;10.686;2024-03-17T00:45:31;19.08;;;11.55;;
45944;SDS011;31655;48.972;10.686;2024-03-17T00:47:57;19.05;;;10.55;;
45944;SDS011;31655;48.972;10.686;2024-03-17T00:50:23;19.58;;;11.27;;
45944;SDS011;31655;48.972;10.686;2024-03-17T00:52:49;17.48;;;10.32;;
45944;SDS011;31655;48.972;10.686;2024-03-17T00:55:14;19.67;;;10.68;;
45944;SDS011;31655;48.972;10.686;2024-03-17T00:57:40;19.60;;;11.00;;
45944;SDS011;31655;48.972;10.686;2024-03-17T01:00:06;19.02;;;12.05;;
45944;SDS011;31655;48.972;10.686;2024-03-17T01:02:35;21.27;;;11.55;;
45944;SDS011;31655;48.972;10.686;2024-03-17T01:05:00;22.63;;;12.40;;
45944;SDS011;31655;48.972;10.686;2024-03-17T01:07:26;21.77;;;13.00;;
45944;SDS011;31655;48.972;10.686;2024-03-17T01:09:51;18.02;;;10.43;;
45944;SDS011;31655;48.972;10.686;2024-03-17T01:12:17;18.42;;;10.48;;
45944;SDS011;31655;48.972;10.686;2024-03-17T01:14:43;15.75;;;8.77;;
45944;SDS011;31655;48.972;10.686;2024-03-17T01:17:08;14.75;;;9.23;;
45944;SDS011;31655;48.972;10.686;2024-03-17T01:19:34;15.60;;;9.38;;
45944;SDS011;31655;48.972;10.686;2024-03-17T01:22:00;11.93;;;8.02;;
45944;SDS011;31655;48.972;10.686;2024-03-17T01:24:26;17.83;;;9.13;;
45944;SDS011;31655;48.972;10.686;2024-03-17T01:26:56;14.90;;;8.63;;
45944;SDS011;31655;48.972;10.686;2024-03-17T01:29:23;16.42;;;9.05;;
45944;SDS011;31655;48.972;10.686;2024-03-17T01:31:49;13.90;;;8.98;;
45944;SDS011;31655;48.972;10.686;2024-03-17T01:34:15;17.92;;;11.07;;
45944;SDS011;31655;48.972;10.686;2024-03-17T01:36:41;20.17;;;11.88;;
45944;SDS011;31655;48.972;10.686;2024-03-17T01:39:07;15.35;;;9.57;;
45944;SDS011;31655;48.972;10.686;2024-03-17T01:41:32;16.50;;;9.93;;
45944;SDS011;31655;48.972;10.686;2024-03-17T01:43:58;18.08;;;9.90;;
45944;SDS011;31655;48.972;10.686;2024-03-17T01:46:24;14.77;;;9.73;;
45944;SDS011;31655;48.972;10.686;2024-03-17T01:48:50;18.38;;;10.77;;
45944;SDS011;31655;48.972;10.686;2024-03-17T01:51:16;22.42;;;10.70;;
45944;SDS011;31655;48.972;10.686;2024-03-17T01:53:42;19.30;;;12.00;;
45944;SDS011;31655;48.972;10.686;2024-03-17T01:56:09;22.35;;;11.85;;
45944;SDS011;31655;48.972;10.686;2024-03-17T01:58:35;21.48;;;12.95;;
45944;SDS011;31655;48.972;10.686;2024-03-17T02:01:01;23.75;;;13.35;;
45944;SDS011;31655;48.972;10.686;2024-03-17T02:03:29;25.35;;;13.38;;
45944;SDS011;31655;48.972;10.686;2024-03-17T02:05:55;20.85;;;12.43;;
45944;SDS011;31655;48.972;10.686;2024-03-17T02:08:20;23.83;;;13.68;;
45944;SDS011;31655;48.972;10.686;2024-03-17T02:10:51;27.08;;;13.95;;
45944;SDS011;31655;48.972;10.686;2024-03-17T02:13:18;25.60;;;13.68;;
45944;SDS011;31655;48.972;10.686;2024-03-17T02:15:44;25.75;;;13.65;;
45944;SDS011;31655;48.972;10.686;2024-03-17T02:18:09;21.05;;;12.13;;
45944;SDS011;31655;48.972;10.686;2024-03-17T02:20:35;23.27;;;11.73;;
45944;SDS011;31655;48.972;10.686;2024-03-17T02:23:19;22.83;;;11.55;;
45944;SDS011;31655;48.972;10.686;2024-03-17T02:25:45;20.67;;;11.75;;
45944;SDS011;31655;48.972;10.686;2024-03-17T02:28:11;23.63;;;12.77;;
45944;SDS011;31655;48.972;10.686;2024-03-17T02:30:37;46.78;;;23.00;;
45944;SDS011;31655;48.972;10.686;2024-03-17T02:33:03;32.42;;;16.88;;
45944;SDS011;31655;48.972;10.686;2024-03-17T02:35:28;29.50;;;16.25;;
45944;SDS011;31655;48.972;10.686;2024-03-17T02:37:54;21.17;;;12.13;;
45944;SDS011;31655;48.972;10.686;2024-03-17T02:40:19;21.80;;;13.05;;
45944;SDS011;31655;48.972;10.686;2024-03-17T02:42:45;22.40;;;12.73;;
45944;SDS011;31655;48.972;10.686;2024-03-17T02:45:11;24.75;;;13.32;;
45944;SDS011;31655;48.972;10.686;2024-03-17T02:47:37;28.58;;;14.38;;
45944;SDS011;31655;48.972;10.686;2024-03-17T02:50:03;23.80;;;13.45;;
45944;SDS011;31655;48.972;10.686;2024-03-17T02:52:29;24.50;;;13.23;;
45944;SDS011;31655;48.972;10.686;2024-03-17T02:54:55;25.88;;;13.50;;
45944;SDS011;31655;48.972;10.686;2024-03-17T02:57:21;27.45;;;14.68;;
45944;SDS011;31655;48.972;10.686;2024-03-17T02:59:49;26.92;;;13.43;;
45944;SDS011;31655;48.972;10.686;2024-03-17T03:02:15;27.10;;;13.27;;
45944;SDS011;31655;48.972;10.686;2024-03-17T03:04:41;26.10;;;13.75;;
45944;SDS011;31655;48.972;10.686;2024-03-17T03:07:06;27.67;;;13.85;;
45944;SDS011;31655;48.972;10.686;2024-03-17T03:09:32;28.63;;;14.55;;
45944;SDS011;31655;48.972;10.686;2024-03-17T03:12:00;32.33;;;15.70;;
45944;SDS011;31655;48.972;10.686;2024-03-17T03:14:29;24.17;;;13.25;;
45944;SDS011;31655;48.972;10.686;2024-03-17T03:16:55;25.52;;;14.02;;
45944;SDS011;31655;48.972;10.686;2024-03-17T03:19:21;26.88;;;13.10;;
45944;SDS011;31655;48.972;10.686;2024-03-17T03:21:47;29.77;;;15.25;;
45944;SDS011;31655;48.972;10.686;2024-03-17T03:24:15;30.75;;;16.20;;
45944;SDS011;31655;48.972;10.686;2024-03-17T03:26:42;33.72;;;15.68;;
45944;SDS011;31655;48.972;10.686;2024-03-17T03:29:08;30.58;;;16.02;;
45944;SDS011;31655;48.972;10.686;2024-03-17T03:31:35;27.85;;;14.52;;
45944;SDS011;31655;48.972;10.686;2024-03-17T03:34:01;28.27;;;14.93;;
45944;SDS011;31655;48.972;10.686;2024-03-17T03:36:27;27.25;;;14.65;;
45944;SDS011;31655;48.972;10.686;2024-03-17T03:38:53;33.83;;;16.17;;
45944;SDS011;31655;48.972;10.686;2024-03-17T03:41:19;26.77;;;14.52;;
45944;SDS011;31655;48.972;10.686;2024-03-17T03:43:45;24.38;;;13.85;;
45944;SDS011;31655;48.972;10.686;2024-03-17T03:46:13;24.58;;;14.68;;
45944;SDS011;31655;48.972;10.686;2024-03-17T03:48:39;25.55;;;13.90;;
45944;SDS011;31655;48.972;10.686;2024-03-17T03:51:05;23.20;;;13.95;;
45944;SDS011;31655;48.972;10.686;2024-03-17T03:53:32;25.45;;;13.45;;
45944;SDS011;31655;48.972;10.686;2024-03-17T03:55:58;23.73;;;13.95;;
45944;SDS011;31655;48.972;10.686;2024-03-17T03:58:26;22.50;;;12.85;;
45944;SDS011;31655;48.972;10.686;2024-03-17T04:00:52;21.63;;;12.23;;
45944;SDS011;31655;48.972;10.686;2024-03-17T04:03:18;18.40;;;10.80;;
45944;SDS011;31655;48.972;10.686;2024-03-17T04:05:43;19.98;;;11.75;;
45944;SDS011;31655;48.972;10.686;2024-03-17T04:08:09;20.45;;;10.77;;
45944;SDS011;31655;48.972;10.686;2024-03-17T04:10:34;19.02;;;11.30;;
45944;SDS011;31655;48.972;10.686;2024-03-17T04:13:00;16.73;;;9.73;;
45944;SDS011;31655;48.972;10.686;2024-03-17T04:15:26;21.20;;;10.45;;
45944;SDS011;31655;48.972;10.686;2024-03-17T04:17:51;19.65;;;10.18;;
45944;SDS011;31655;48.972;10.686;2024-03-17T04:20:17;18.85;;;10.57;;
45944;SDS011;31655;48.972;10.686;2024-03-17T04:22:43;17.92;;;10.50;;
45944;SDS011;31655;48.972;10.686;2024-03-17T04:25:09;19.75;;;10.57;;
45944;SDS011;31655;48.972;10.686;2024-03-17T04:27:35;19.23;;;11.20;;
45944;SDS011;31655;48.972;10.686;2024-03-17T04:30:01;17.63;;;10.20;;
45944;SDS011;31655;48.972;10.686;2024-03-17T04:32:30;21.35;;;11.30;;
45944;SDS011;31655;48.972;10.686;2024-03-17T04:34:56;22.45;;;11.50;;
45944;SDS011;31655;48.972;10.686;2024-03-17T04:37:22;20.38;;;11.35;;
45944;SDS011;31655;48.972;10.686;2024-03-17T04:39:48;21.10;;;11.27;;
45944;SDS011;31655;48.972;10.686;2024-03-17T04:42:14;20.15;;;11.13;;
45944;SDS011;31655;48.972;10.686;2024-03-17T04:44:41;19.67;;;11.10;;
45944;SDS011;31655;48.972;10.686;2024-03-17T04:47:07;24.65;;;14.00;;
45944;SDS011;31655;48.972;10.686;2024-03-17T04:49:40;25.23;;;13.65;;
45944;SDS011;31655;48.972;10.686;2024-03-17T04:52:11;25.75;;;14.32;;
45944;SDS011;31655;48.972;10.686;2024-03-17T04:54:38;25.90;;;13.05;;
45944;SDS011;31655;48.972;10.686;2024-03-17T04:57:04;23.15;;;13.50;;
45944;SDS011;31655;48.972;10.686;2024-03-17T04:59:29;23.15;;;12.45;;
45944;SDS011;31655;48.972;10.686;2024-03-17T05:01:58;23.70;;;12.35;;
45944;SDS011;31655;48.972;10.686;2024-03-17T05:04:24;23.52;;;14.07;;
45944;SDS011;31655;48.972;10.686;2024-03-17T05:06:49;27.63;;;13.43;;
45944;SDS011;31655;48.972;10.686;2024-03-17T05:09:18;22.88;;;12.95;;
45944;SDS011;31655;48.972;10.686;2024-03-17T05:11:44;22.15;;;13.05;;
45944;SDS011;31655;48.972;10.686;2024-03-17T05:14:10;21.67;;;12.75;;
45944;SDS011;31655;48.972;10.686;2024-03-17T05:16:36;26.33;;;12.18;;
45944;SDS011;31655;48.972;10.686;2024-03-17T05:19:02;22.50;;;13.00;;
45944;SDS011;31655;48.972;10.686;2024-03-17T05:21:28;26.13;;;12.55;;
45944;SDS011;31655;48.972;10.686;2024-03-17T05:23:57;26.05;;;14.00;;
45944;SDS011;31655;48.972;10.686;2024-03-17T05:26:23;21.58;;;12.55;;
45944;SDS011;31655;48.972;10.686;2024-03-17T05:28:49;20.90;;;11.20;;
45944;SDS011;31655;48.972;10.686;2024-03-17T05:31:15;18.33;;;10.80;;
45944;SDS011;31655;48.972;10.686;2024-03-17T05:33:42;16.70;;;10.45;;
45944;SDS011;31655;48.972;10.686;2024-03-17T05:36:08;19.30;;;11.00;;
45944;SDS011;31655;48.972;10.686;2024-03-17T05:38:34;19.20;;;10.77;;
45944;SDS011;31655;48.972;10.686;2024-03-17T05:41:00;19.85;;;10.40;;
45944;SDS011;31655;48.972;10.686;2024-03-17T05:43:32;19.27;;;10.13;;
45944;SDS011;31655;48.972;10.686;2024-03-17T05:46:00;21.65;;;10.27;;
45944;SDS011;31655;48.972;10.686;2024-03-17T05:48:27;19.27;;;10.95;;
45944;SDS011;31655;48.972;10.686;2024-03-17T05:50:53;20.55;;;10.07;;
45944;SDS011;31655;48.972;10.686;2024-03-17T05:53:20;21.00;;;12.23;;
45944;SDS011;31655;48.972;10.686;2024-03-17T05:55:46;21.58;;;11.13;;
45944;SDS011;31655;48.972;10.686;2024-03-17T05:58:12;19.70;;;11.20;;
45944;SDS011;31655;48.972;10.686;2024-03-17T06:00:40;22.52;;;12.07;;
45944;SDS011;31655;48.972;10.686;2024-03-17T06:03:06;18.60;;;10.65;;
45944;SDS011;31655;48.972;10.686;2024-03-17T06:05:32;21.13;;;9.80;;
45944;SDS011;31655;48.972;10.686;2024-03-17T06:07:59;19.33;;;10.88;;
45944;SDS011;31655;48.972;10.686;2024-03-17T06:10:25;16.60;;;10.43;;
45944;SDS011;31655;48.972;10.686;2024-03-17T06:12:52;18.40;;;10.10;;
45944;SDS011;31655;48.972;10.686;2024-03-17T06:15:17;18.92;;;11.10;;
45944;SDS011;31655;48.972;10.686;2024-03-17T06:17:43;18.25;;;10.75;;
45944;SDS011;31655;48.972;10.686;2024-03-17T06:20:08;17.20;;;9.68;;
45944;SDS011;31655;48.972;10.686;2024-03-17T06:22:38;16.02;;;8.90;;
45944;SDS011;31655;48.972;10.686;2024-03-17T06:25:04;16.58;;;8.68;;
45944;SDS011;31655;48.972;10.686;2024-03-17T06:27:31;15.55;;;8.30;;
45944;SDS011;31655;48.972;10.686;2024-03-17T06:29:58;18.55;;;9.10;;
45944;SDS011;31655;48.972;10.686;2024-03-17T06:32:25;20.67;;;9.50;;
45944;SDS011;31655;48.972;10.686;2024-03-17T06:34:51;16.17;;;9.57;;
45944;SDS011;31655;48.972;10.686;2024-03-17T06:37:17;16.70;;;8.95;;
45944;SDS011;31655;48.972;10.686;2024-03-17T06:39:45;11.88;;;7.07;;
45944;SDS011;31655;48.972;10.686;2024-03-17T06:42:10;12.38;;;7.53;;
45944;SDS011;31655;48.972;10.686;2024-03-17T06:44:36;11.38;;;6.82;;
45944;SDS011;31655;48.972;10.686;2024-03-17T06:47:02;10.90;;;7.25;;
45944;SDS011;31655;48.972;10.686;2024-03-17T06:49:28;9.65;;;6.60;;
45944;SDS011;31655;48.972;10.686;2024-03-17T06:51:53;12.38;;;6.97;;
45944;SDS011;31655;48.972;10.686;2024-03-17T06:54:19;9.43;;;6.53;;
45944;SDS011;31655;48.972;10.686;2024-03-17T06:56:45;10.18;;;7.60;;
45944;SDS011;31655;48.972;10.686;2024-03-17T06:59:10;9.25;;;6.80;;
45944;SDS011;31655;48.972;10.686;2024-03-17T07:01:36;15.70;;;10.13;;
45944;SDS011;31655;48.972;10.686;2024-03-17T07:04:01;9.23;;;6.50;;
45944;SDS011;31655;48.972;10.686;2024-03-17T07:06:27;8.10;;;6.10;;
45944;SDS011;31655;48.972;10.686;2024-03-17T07:08:53;8.77;;;5.60;;
45944;SDS011;31655;48.972;10.686;2024-03-17T07:11:19;8.35;;;5.60;;
45944;SDS011;31655;48.972;10.686;2024-03-17T07:13:48;9.82;;;7.25;;
45944;SDS011;31655;48.972;10.686;2024-03-17T07:16:16;7.65;;;5.35;;
45944;SDS011;31655;48.972;10.686;2024-03-17T07:18:41;8.15;;;6.38;;
45944;SDS011;31655;48.972;10.686;2024-03-17T07:21:08;10.60;;;6.75;;
45944;SDS011;31655;48.972;10.686;2024-03-17T07:23:35;9.68;;;6.60;;
45944;SDS011;31655;48.972;10.686;2024-03-17T07:26:01;10.80;;;7.13;;
45944;SDS011;31655;48.972;10.686;2024-03-17T07:28:29;6.32;;;5.72;;
45944;SDS011;31655;48.972;10.686;2024-03-17T07:30:57;10.07;;;5.95;;
45944;SDS011;31655;48.972;10.686;2024-03-17T07:33:25;7.35;;;6.03;;
45944;SDS011;31655;48.972;10.686;2024-03-17T07:35:54;10.02;;;7.63;;
45944;SDS011;31655;48.972;10.686;2024-03-17T07:38:22;14.27;;;8.65;;
45944;SDS011;31655;48.972;10.686;2024-03-17T07:41:07;18.88;;;10.80;;
45944;SDS011;31655;48.972;10.686;2024-03-17T07:43:34;11.27;;;8.27;;
45944;SDS011;31655;48.972;10.686;2024-03-17T07:46:02;13.38;;;9.05;;
45944;SDS011;31655;48.972;10.686;2024-03-17T07:48:32;8.38;;;6.85;;
45944;SDS011;31655;48.972;10.686;2024-03-17T07:51:04;14.60;;;9.70;;
45944;SDS011;31655;48.972;10.686;2024-03-17T07:53:31;6.47;;;5.88;;
45944;SDS011;31655;48.972;10.686;2024-03-17T07:56:04;7.57;;;6.88;;
45944;SDS011;31655;48.972;10.686;2024-03-17T07:58:32;6.25;;;4.32;;
45944;SDS011;31655;48.972;10.686;2024-03-17T08:00:59;8.88;;;4.82;;
45944;SDS011;31655;48.972;10.686;2024-03-17T08:03:32;7.57;;;5.45;;
45944;SDS011;31655;48.972;10.686;2024-03-17T08:06:00;7.53;;;6.10;;
45944;SDS011;31655;48.972;10.686;2024-03-17T08:08:26;5.65;;;4.72;;
45944;SDS011;31655;48.972;10.686;2024-03-17T08:10:52;7.43;;;5.65;;
45944;SDS011;31655;48.972;10.686;2024-03-17T08:13:18;8.43;;;5.50;;
45944;SDS011;31655;48.972;10.686;2024-03-17T08:15:45;9.23;;;5.93;;
45944;SDS011;31655;48.972;10.686;2024-03-17T08:18:12;6.43;;;5.72;;
45944;SDS011;31655;48.972;10.686;2024-03-17T08:20:38;8.75;;;6.30;;
45944;SDS011;31655;48.972;10.686;2024-03-17T08:23:11;6.43;;;5.13;;
45944;SDS011;31655;48.972;10.686;2024-03-17T08:25:37;5.88;;;5.22;;
45944;SDS011;31655;48.972;10.686;2024-03-17T08:28:03;7.43;;;5.80;;
45944;SDS011;31655;48.972;10.686;2024-03-17T08:30:29;6.32;;;4.85;;
45944;SDS011;31655;48.972;10.686;2024-03-17T08:32:58;7.63;;;5.32;;
45944;SDS011;31655;48.972;10.686;2024-03-17T08:35:23;5.88;;;4.57;;
45944;SDS011;31655;48.972;10.686;2024-03-17T08:37:49;5.68;;;5.03;;
45944;SDS011;31655;48.972;10.686;2024-03-17T08:40:16;6.90;;;5.68;;
45944;SDS011;31655;48.972;10.686;2024-03-17T08:42:42;7.05;;;5.10;;
45944;SDS011;31655;48.972;10.686;2024-03-17T08:45:08;7.63;;;5.47;;
45944;SDS011;31655;48.972;10.686;2024-03-17T08:47:35;7.70;;;5.75;;
45944;SDS011;31655;48.972;10.686;2024-03-17T08:50:00;7.97;;;4.85;;
45944;SDS011;31655;48.972;10.686;2024-03-17T08:52:29;10.38;;;6.10;;
45944;SDS011;31655;48.972;10.686;2024-03-17T08:54:56;7.47;;;5.97;;
45944;SDS011;31655;48.972;10.686;2024-03-17T08:57:22;9.02;;;5.10;;
45944;SDS011;31655;48.972;10.686;2024-03-17T08:59:48;10.45;;;5.93;;
45944;SDS011;31655;48.972;10.686;2024-03-17T09:02:14;8.38;;;6.97;;
45944;SDS011;31655;48.972;10.686;2024-03-17T09:04:40;7.95;;;5.28;;
45944;SDS011;31655;48.972;10.686;2024-03-17T09:07:06;5.97;;;5.13;;
45944;SDS011;31655;48.972;10.686;2024-03-17T09:09:32;8.18;;;6.03;;
45944;SDS011;31655;48.972;10.686;2024-03-17T09:11:57;6.53;;;4.80;;
45944;SDS011;31655;48.972;10.686;2024-03-17T09:14:23;6.40;;;5.72;;
45944;SDS011;31655;48.972;10.686;2024-03-17T09:16:49;7.25;;;5.35;;
45944;SDS011;31655;48.972;10.686;2024-03-17T09:19:15;6.00;;;5.40;;
45944;SDS011;31655;48.972;10.686;2024-03-17T09:21:40;6.38;;;5.13;;
45944;SDS011;31655;48.972;10.686;2024-03-17T09:24:09;6.45;;;5.57;;
45944;SDS011;31655;48.972;10.686;2024-03-17T09:26:34;5.95;;;4.65;;
45944;SDS011;31655;48.972;10.686;2024-03-17T09:29:03;6.75;;;4.93;;
45944;SDS011;31655;48.972;10.686;2024-03-17T09:31:29;7.15;;;5.60;;
45944;SDS011;31655;48.972;10.686;2024-03-17T09:33:55;6.30;;;5.32;;
45944;SDS011;31655;48.972;10.686;2024-03-17T09:36:21;7.55;;;5.55;;
45944;SDS011;31655;48.972;10.686;2024-03-17T09:38:46;8.85;;;5.78;;
45944;SDS011;31655;48.972;10.686;2024-03-17T09:41:19;8.52;;;5.80;;
45944;SDS011;31655;48.972;10.686;2024-03-17T09:43:47;9.25;;;6.07;;
45944;SDS011;31655;48.972;10.686;2024-03-17T09:46:14;6.57;;;5.03;;
45944;SDS011;31655;48.972;10.686;2024-03-17T09:48:41;7.57;;;5.72;;
45944;SDS011;31655;48.972;10.686;2024-03-17T09:51:08;8.05;;;6.45;;
45944;SDS011;31655;48.972;10.686;2024-03-17T09:53:43;7.85;;;6.35;;
45944;SDS011;31655;48.972;10.686;2024-03-17T09:56:09;8.88;;;6.25;;
45944;SDS011;31655;48.972;10.686;2024-03-17T09:58:40;8.13;;;5.85;;
45944;SDS011;31655;48.972;10.686;2024-03-17T10:01:16;8.27;;;6.10;;
45944;SDS011;31655;48.972;10.686;2024-03-17T10:03:46;10.25;;;6.38;;
45944;SDS011;31655;48.972;10.686;2024-03-17T10:06:22;8.43;;;6.72;;
45944;SDS011;31655;48.972;10.686;2024-03-17T10:11:25;9.73;;;5.72;;
45944;SDS011;31655;48.972;10.686;2024-03-17T10:13:58;7.97;;;6.28;;
45944;SDS011;31655;48.972;10.686;2024-03-17T10:16:25;7.88;;;5.70;;
45944;SDS011;31655;48.972;10.686;2024-03-17T10:19:05;7.55;;;5.55;;
45944;SDS011;31655;48.972;10.686;2024-03-17T10:21:32;7.72;;;5.10;;
45944;SDS011;31655;48.972;10.686;2024-03-17T10:24:05;7.00;;;5.22;;
45944;SDS011;31655;48.972;10.686;2024-03-17T10:26:38;8.20;;;5.65;;
45944;SDS011;31655;48.972;10.686;2024-03-17T10:29:19;8.15;;;5.70;;
45944;SDS011;31655;48.972;10.686;2024-03-17T10:31:50;8.07;;;5.72;;
45944;SDS011;31655;48.972;10.686;2024-03-17T10:34:27;7.60;;;5.68;;
45944;SDS011;31655;48.972;10.686;2024-03-17T10:37:18;12.82;;;7.38;;
45944;SDS011;31655;48.972;10.686;2024-03-17T10:39:50;7.43;;;5.90;;
45944;SDS011;31655;48.972;10.686;2024-03-17T10:42:28;7.57;;;5.88;;
45944;SDS011;31655;48.972;10.686;2024-03-17T10:44:56;5.68;;;5.07;;
45944;SDS011;31655;48.972;10.686;2024-03-17T10:47:23;6.43;;;4.85;;
45944;SDS011;31655;48.972;10.686;2024-03-17T10:49:53;7.32;;;5.53;;
45944;SDS011;31655;48.972;10.686;2024-03-17T10:52:20;8.85;;;6.13;;
45944;SDS011;31655;48.972;10.686;2024-03-17T10:54:51;8.00;;;5.50;;
45944;SDS011;31655;48.972;10.686;2024-03-17T10:57:31;8.15;;;5.70;;
45944;SDS011;31655;48.972;10.686;2024-03-17T11:00:00;7.18;;;6.07;;
45944;SDS011;31655;48.972;10.686;2024-03-17T11:02:30;10.23;;;6.60;;
45944;SDS011;31655;48.972;10.686;2024-03-17T11:07:31;7.70;;;5.10;;
45944;SDS011;31655;48.972;10.686;2024-03-17T11:09:58;9.52;;;5.97;;
45944;SDS011;31655;48.972;10.686;2024-03-17T11:17:49;9.60;;;5.95;;
45944;SDS011;31655;48.972;10.686;2024-03-17T11:20:23;9.98;;;5.75;;
45944;SDS011;31655;48.972;10.686;2024-03-17T11:22:51;9.10;;;5.53;;
45944;SDS011;31655;48.972;10.686;2024-03-17T11:27:55;6.45;;;4.78;;
45944;SDS011;31655;48.972;10.686;2024-03-17T11:41:39;7.90;;;5.10;;
45944;SDS011;31655;48.972;10.686;2024-03-17T11:44:13;8.45;;;5.32;;
45944;SDS011;31655;48.972;10.686;2024-03-17T11:46:57;8.70;;;6.28;;
45944;SDS011;31655;48.972;10.686;2024-03-17T11:49:41;8.90;;;5.50;;
45944;SDS011;31655;48.972;10.686;2024-03-17T11:52:15;8.63;;;5.15;;
45944;SDS011;31655;48.972;10.686;2024-03-17T11:54:42;6.22;;;5.00;;
45944;SDS011;31655;48.972;10.686;2024-03-17T11:57:13;8.43;;;5.65;;
45944;SDS011;31655;48.972;10.686;2024-03-17T11:59:44;7.10;;;5.78;;
45944;SDS011;31655;48.972;10.686;2024-03-17T12:04:50;5.40;;;4.78;;
45944;SDS011;31655;48.972;10.686;2024-03-17T12:07:22;7.15;;;5.57;;
45944;SDS011;31655;48.972;10.686;2024-03-17T12:09:48;8.57;;;5.20;;
45944;SDS011;31655;48.972;10.686;2024-03-17T12:12:16;6.60;;;4.97;;
45944;SDS011;31655;48.972;10.686;2024-03-17T12:14:46;6.10;;;4.60;;
45944;SDS011;31655;48.972;10.686;2024-03-17T12:17:13;6.75;;;4.60;;
45944;SDS011;31655;48.972;10.686;2024-03-17T12:19:40;7.88;;;5.45;;
45944;SDS011;31655;48.972;10.686;2024-03-17T12:22:09;9.07;;;5.93;;
45944;SDS011;31655;48.972;10.686;2024-03-17T12:24:47;8.30;;;5.53;;
45944;SDS011;31655;48.972;10.686;2024-03-17T12:27:18;8.20;;;4.95;;
45944;SDS011;31655;48.972;10.686;2024-03-17T12:29:48;7.28;;;5.07;;
45944;SDS011;31655;48.972;10.686;2024-03-17T12:32:21;8.07;;;5.13;;
45944;SDS011;31655;48.972;10.686;2024-03-17T12:34:55;10.48;;;5.78;;
45944;SDS011;31655;48.972;10.686;2024-03-17T12:37:26;7.80;;;5.15;;
45944;SDS011;31655;48.972;10.686;2024-03-17T12:39:58;11.65;;;5.60;;
45944;SDS011;31655;48.972;10.686;2024-03-17T12:42:25;8.02;;;5.38;;
45944;SDS011;31655;48.972;10.686;2024-03-17T12:44:58;8.60;;;5.90;;
45944;SDS011;31655;48.972;10.686;2024-03-17T12:47:29;10.18;;;5.97;;
45944;SDS011;31655;48.972;10.686;2024-03-17T12:49:59;7.55;;;5.72;;
45944;SDS011;31655;48.972;10.686;2024-03-17T12:52:26;8.77;;;5.35;;
45944;SDS011;31655;48.972;10.686;2024-03-17T12:54:59;7.43;;;5.25;;
45944;SDS011;31655;48.972;10.686;2024-03-17T12:57:51;6.95;;;5.30;;
45944;SDS011;31655;48.972;10.686;2024-03-17T13:03:06;8.98;;;6.45;;
45944;SDS011;31655;48.972;10.686;2024-03-17T13:05:35;9.82;;;5.30;;
45944;SDS011;31655;48.972;10.686;2024-03-17T13:08:01;7.47;;;4.88;;
45944;SDS011;31655;48.972;10.686;2024-03-17T13:10:28;9.43;;;6.15;;
45944;SDS011;31655;48.972;10.686;2024-03-17T13:13:03;7.85;;;5.90;;
45944;SDS011;31655;48.972;10.686;2024-03-17T13:15:30;8.25;;;5.45;;
45944;SDS011;31655;48.972;10.686;2024-03-17T13:17:57;7.40;;;4.85;;
45944;SDS011;31655;48.972;10.686;2024-03-17T13:20:26;9.02;;;5.63;;
45944;SDS011;31655;48.972;10.686;2024-03-17T13:22:52;7.03;;;4.90;;
45944;SDS011;31655;48.972;10.686;2024-03-17T13:25:19;8.40;;;5.03;;
45944;SDS011;31655;48.972;10.686;2024-03-17T13:27:49;9.85;;;5.63;;
45944;SDS011;31655;48.972;10.686;2024-03-17T13:30:16;7.50;;;4.78;;
45944;SDS011;31655;48.972;10.686;2024-03-17T13:32:43;6.25;;;4.57;;
45944;SDS011;31655;48.972;10.686;2024-03-17T13:35:18;7.15;;;5.40;;
45944;SDS011;31655;48.972;10.686;2024-03-17T13:37:44;8.25;;;5.22;;
45944;SDS011;31655;48.972;10.686;2024-03-17T13:40:11;7.03;;;5.13;;
45944;SDS011;31655;48.972;10.686;2024-03-17T13:42:39;12.57;;;8.93;;
45944;SDS011;31655;48.972;10.686;2024-03-17T13:45:05;8.27;;;5.18;;
45944;SDS011;31655;48.972;10.686;2024-03-17T13:47:35;8.27;;;4.85;;
45944;SDS011;31655;48.972;10.686;2024-03-17T13:50:00;8.98;;;5.63;;
45944;SDS011;31655;48.972;10.686;2024-03-17T13:52:26;9.38;;;5.70;;
45944;SDS011;31655;48.972;10.686;2024-03-17T13:54:53;7.65;;;5.40;;
45944;SDS011;31655;48.972;10.686;2024-03-17T13:57:18;7.22;;;4.72;;
45944;SDS011;31655;48.972;10.686;2024-03-17T13:59:44;8.93;;;4.95;;
45944;SDS011;31655;48.972;10.686;2024-03-17T14:02:12;10.18;;;5.38;;
45944;SDS011;31655;48.972;10.686;2024-03-17T14:04:38;11.68;;;5.78;;
45944;SDS011;31655;48.972;10.686;2024-03-17T14:07:04;5.50;;;4.43;;
45944;SDS011;31655;48.972;10.686;2024-03-17T14:09:30;9.40;;;5.13;;
45944;SDS011;31655;48.972;10.686;2024-03-17T14:11:56;10.95;;;5.70;;
45944;SDS011;31655;48.972;10.686;2024-03-17T14:14:22;6.75;;;5.07;;
45944;SDS011;31655;48.972;10.686;2024-03-17T14:16:48;8.82;;;5.35;;
45944;SDS011;31655;48.972;10.686;2024-03-17T14:19:13;10.52;;;5.60;;
45944;SDS011;31655;48.972;10.686;2024-03-17T14:21:39;9.15;;;5.28;;
45944;SDS011;31655;48.972;10.686;2024-03-17T14:24:05;9.02;;;5.57;;
45944;SDS011;31655;48.972;10.686;2024-03-17T14:26:33;7.78;;;5.60;;
45944;SDS011;31655;48.972;10.686;2024-03-17T14:29:00;7.00;;;5.47;;
45944;SDS011;31655;48.972;10.686;2024-03-17T14:31:26;7.35;;;4.97;;
45944;SDS011;31655;48.972;10.686;2024-03-17T14:33:55;8.13;;;5.43;;
45944;SDS011;31655;48.972;10.686;2024-03-17T14:36:20;5.95;;;4.65;;
45944;SDS011;31655;48.972;10.686;2024-03-17T14:38:51;6.47;;;5.03;;
45944;SDS011;31655;48.972;10.686;2024-03-17T14:41:19;9.90;;;5.65;;
45944;SDS011;31655;48.972;10.686;2024-03-17T14:43:45;8.13;;;5.55;;
45944;SDS011;31655;48.972;10.686;2024-03-17T14:46:11;9.30;;;6.40;;
45944;SDS011;31655;48.972;10.686;2024-03-17T14:48:41;7.43;;;6.03;;
45944;SDS011;31655;48.972;10.686;2024-03-17T14:51:08;10.77;;;6.45;;
45944;SDS011;31655;48.972;10.686;2024-03-17T14:53:34;9.52;;;6.05;;
45944;SDS011;31655;48.972;10.686;2024-03-17T14:56:01;7.25;;;5.45;;